sensor_id;sensor_type;location;lat;lon;timestamp;P1;durP1;ratioP1;P2;durP2;ratioP2
39140;SDS011;24875;48.436;10.298;2023-02-28T00:01:10;4.33;;;1.87;;
39140;SDS011;24875;48.436;10.298;2023-02-28T00:03:38;2.60;;;1.63;;
39140;SDS011;24875;48.436;10.298;2023-02-28T00:06:05;3.93;;;2.03;;
39140;SDS011;24875;48.436;10.298;2023-02-28T00:08:32;1.77;;;1.60;;
39140;SDS011;24875;48.436;10.298;2023-02-28T00:11:01;9.23;;;1.67;;
39140;SDS011;24875;48.436;10.298;2023-02-28T00:13:28;1.30;;;1.20;;
39140;SDS011;24875;48.436;10.298;2023-02-28T00:15:58;1.53;;;1.30;;
39140;SDS011;24875;48.436;10.298;2023-02-28T00:18:26;1.37;;;1.17;;
39140;SDS011;24875;48.436;10.298;2023-02-28T00:20:52;2.23;;;1.60;;
39140;SDS011;24875;48.436;10.298;2023-02-28T00:23:19;4.77;;;2.00;;
39140;SDS011;24875;48.436;10.298;2023-02-28T00:25:45;3.73;;;1.60;;
39140;SDS011;24875;48.436;10.298;2023-02-28T00:28:13;4.17;;;1.47;;
39140;SDS011;24875;48.436;10.298;2023-02-28T00:30:39;0.80;;;0.80;;
39140;SDS011;24875;48.436;10.298;2023-02-28T00:33:06;3.23;;;2.13;;
39140;SDS011;24875;48.436;10.298;2023-02-28T00:35:32;1.67;;;1.40;;
39140;SDS011;24875;48.436;10.298;2023-02-28T00:37:59;2.63;;;1.53;;
39140;SDS011;24875;48.436;10.298;2023-02-28T00:40:25;3.60;;;1.73;;
39140;SDS011;24875;48.436;10.298;2023-02-28T00:42:52;3.63;;;1.60;;
39140;SDS011;24875;48.436;10.298;2023-02-28T00:45:19;2.57;;;1.63;;
39140;SDS011;24875;48.436;10.298;2023-02-28T00:47:46;4.27;;;1.70;;
39140;SDS011;24875;48.436;10.298;2023-02-28T00:50:14;2.73;;;1.77;;
39140;SDS011;24875;48.436;10.298;2023-02-28T00:52:41;2.33;;;1.30;;
39140;SDS011;24875;48.436;10.298;2023-02-28T00:55:09;5.40;;;1.70;;
39140;SDS011;24875;48.436;10.298;2023-02-28T00:57:35;3.67;;;2.43;;
39140;SDS011;24875;48.436;10.298;2023-02-28T01:00:02;2.77;;;1.43;;
39140;SDS011;24875;48.436;10.298;2023-02-28T01:02:31;3.03;;;2.13;;
39140;SDS011;24875;48.436;10.298;2023-02-28T01:04:57;2.77;;;1.03;;
39140;SDS011;24875;48.436;10.298;2023-02-28T01:07:23;5.40;;;1.90;;
39140;SDS011;24875;48.436;10.298;2023-02-28T01:09:50;4.70;;;2.40;;
39140;SDS011;24875;48.436;10.298;2023-02-28T01:12:16;2.93;;;2.00;;
39140;SDS011;24875;48.436;10.298;2023-02-28T01:14:43;3.50;;;1.93;;
39140;SDS011;24875;48.436;10.298;2023-02-28T01:17:10;5.83;;;1.97;;
39140;SDS011;24875;48.436;10.298;2023-02-28T01:19:38;3.50;;;2.03;;
39140;SDS011;24875;48.436;10.298;2023-02-28T01:22:04;2.80;;;1.63;;
39140;SDS011;24875;48.436;10.298;2023-02-28T01:24:31;3.53;;;1.70;;
39140;SDS011;24875;48.436;10.298;2023-02-28T01:26:58;2.80;;;1.80;;
39140;SDS011;24875;48.436;10.298;2023-02-28T01:29:25;4.07;;;1.83;;
39140;SDS011;24875;48.436;10.298;2023-02-28T01:31:51;5.50;;;2.20;;
39140;SDS011;24875;48.436;10.298;2023-02-28T01:34:17;3.17;;;2.23;;
39140;SDS011;24875;48.436;10.298;2023-02-28T01:36:46;5.17;;;2.67;;
39140;SDS011;24875;48.436;10.298;2023-02-28T01:39:12;3.20;;;1.47;;
39140;SDS011;24875;48.436;10.298;2023-02-28T01:41:39;3.50;;;2.33;;
39140;SDS011;24875;48.436;10.298;2023-02-28T01:44:06;3.33;;;1.97;;
39140;SDS011;24875;48.436;10.298;2023-02-28T01:46:53;2.80;;;1.93;;
39140;SDS011;24875;48.436;10.298;2023-02-28T01:49:19;4.77;;;1.73;;
39140;SDS011;24875;48.436;10.298;2023-02-28T01:51:48;1.67;;;1.57;;
39140;SDS011;24875;48.436;10.298;2023-02-28T01:54:20;5.80;;;2.03;;
39140;SDS011;24875;48.436;10.298;2023-02-28T01:56:51;2.50;;;1.70;;
39140;SDS011;24875;48.436;10.298;2023-02-28T01:59:21;4.17;;;2.20;;
39140;SDS011;24875;48.436;10.298;2023-02-28T02:01:52;3.23;;;1.27;;
39140;SDS011;24875;48.436;10.298;2023-02-28T02:04:19;6.17;;;2.03;;
39140;SDS011;24875;48.436;10.298;2023-02-28T02:06:51;2.47;;;1.90;;
39140;SDS011;24875;48.436;10.298;2023-02-28T02:09:18;3.30;;;1.77;;
39140;SDS011;24875;48.436;10.298;2023-02-28T02:11:44;3.70;;;1.57;;
39140;SDS011;24875;48.436;10.298;2023-02-28T02:17:13;3.60;;;1.83;;
39140;SDS011;24875;48.436;10.298;2023-02-28T02:19:59;4.13;;;2.30;;
39140;SDS011;24875;48.436;10.298;2023-02-28T02:23:03;4.03;;;1.57;;
39140;SDS011;24875;48.436;10.298;2023-02-28T02:25:53;3.27;;;2.40;;
39140;SDS011;24875;48.436;10.298;2023-02-28T02:28:36;8.17;;;2.50;;
39140;SDS011;24875;48.436;10.298;2023-02-28T02:34:38;2.30;;;1.93;;
39140;SDS011;24875;48.436;10.298;2023-02-28T02:37:10;2.13;;;1.93;;
39140;SDS011;24875;48.436;10.298;2023-02-28T02:39:44;3.33;;;1.27;;
39140;SDS011;24875;48.436;10.298;2023-02-28T02:42:20;1.13;;;1.07;;
39140;SDS011;24875;48.436;10.298;2023-02-28T02:44:52;2.73;;;2.03;;
39140;SDS011;24875;48.436;10.298;2023-02-28T02:47:26;4.30;;;2.53;;
39140;SDS011;24875;48.436;10.298;2023-02-28T02:49:57;3.13;;;1.90;;
39140;SDS011;24875;48.436;10.298;2023-02-28T02:52:30;4.80;;;2.20;;
39140;SDS011;24875;48.436;10.298;2023-02-28T02:55:01;2.67;;;1.90;;
39140;SDS011;24875;48.436;10.298;2023-02-28T02:57:30;3.80;;;2.00;;
39140;SDS011;24875;48.436;10.298;2023-02-28T03:00:02;7.57;;;2.50;;
39140;SDS011;24875;48.436;10.298;2023-02-28T03:02:33;4.50;;;2.60;;
39140;SDS011;24875;48.436;10.298;2023-02-28T03:05:04;3.10;;;2.00;;
39140;SDS011;24875;48.436;10.298;2023-02-28T03:07:34;2.87;;;2.10;;
39140;SDS011;24875;48.436;10.298;2023-02-28T03:10:01;4.20;;;2.73;;
39140;SDS011;24875;48.436;10.298;2023-02-28T03:12:40;3.87;;;2.30;;
39140;SDS011;24875;48.436;10.298;2023-02-28T03:15:13;2.50;;;1.43;;
39140;SDS011;24875;48.436;10.298;2023-02-28T03:17:57;4.10;;;2.03;;
39140;SDS011;24875;48.436;10.298;2023-02-28T03:20:36;6.93;;;2.77;;
39140;SDS011;24875;48.436;10.298;2023-02-28T03:23:11;9.47;;;2.63;;
39140;SDS011;24875;48.436;10.298;2023-02-28T03:25:44;6.57;;;3.10;;
39140;SDS011;24875;48.436;10.298;2023-02-28T03:28:21;5.70;;;2.30;;
39140;SDS011;24875;48.436;10.298;2023-02-28T03:30:54;8.07;;;1.77;;
39140;SDS011;24875;48.436;10.298;2023-02-28T03:33:26;7.77;;;1.90;;
39140;SDS011;24875;48.436;10.298;2023-02-28T03:35:58;3.07;;;2.10;;
39140;SDS011;24875;48.436;10.298;2023-02-28T03:38:29;3.07;;;1.63;;
39140;SDS011;24875;48.436;10.298;2023-02-28T03:41:01;9.73;;;2.50;;
39140;SDS011;24875;48.436;10.298;2023-02-28T03:43:34;6.10;;;2.90;;
39140;SDS011;24875;48.436;10.298;2023-02-28T03:46:05;4.87;;;2.37;;
39140;SDS011;24875;48.436;10.298;2023-02-28T03:48:36;3.67;;;2.30;;
39140;SDS011;24875;48.436;10.298;2023-02-28T03:51:09;6.40;;;2.43;;
39140;SDS011;24875;48.436;10.298;2023-02-28T03:53:41;6.03;;;2.40;;
39140;SDS011;24875;48.436;10.298;2023-02-28T03:56:12;4.60;;;2.20;;
39140;SDS011;24875;48.436;10.298;2023-02-28T03:58:42;6.23;;;2.40;;
39140;SDS011;24875;48.436;10.298;2023-02-28T04:01:14;6.83;;;2.27;;
39140;SDS011;24875;48.436;10.298;2023-02-28T04:03:46;4.43;;;2.07;;
39140;SDS011;24875;48.436;10.298;2023-02-28T04:06:15;8.30;;;3.03;;
39140;SDS011;24875;48.436;10.298;2023-02-28T04:08:44;4.90;;;2.43;;
39140;SDS011;24875;48.436;10.298;2023-02-28T04:11:14;3.27;;;2.13;;
39140;SDS011;24875;48.436;10.298;2023-02-28T04:13:45;7.83;;;3.60;;
39140;SDS011;24875;48.436;10.298;2023-02-28T04:16:12;4.87;;;2.40;;
39140;SDS011;24875;48.436;10.298;2023-02-28T04:18:38;6.43;;;2.93;;
39140;SDS011;24875;48.436;10.298;2023-02-28T04:21:05;5.83;;;3.00;;
39140;SDS011;24875;48.436;10.298;2023-02-28T04:23:33;4.23;;;1.93;;
39140;SDS011;24875;48.436;10.298;2023-02-28T04:25:59;6.87;;;3.27;;
39140;SDS011;24875;48.436;10.298;2023-02-28T04:28:26;5.73;;;2.40;;
39140;SDS011;24875;48.436;10.298;2023-02-28T04:30:56;4.43;;;2.80;;
39140;SDS011;24875;48.436;10.298;2023-02-28T04:33:23;9.67;;;2.87;;
39140;SDS011;24875;48.436;10.298;2023-02-28T04:35:57;5.07;;;2.47;;
39140;SDS011;24875;48.436;10.298;2023-02-28T04:38:24;7.87;;;2.73;;
39140;SDS011;24875;48.436;10.298;2023-02-28T04:40:52;8.27;;;3.27;;
39140;SDS011;24875;48.436;10.298;2023-02-28T04:43:18;5.40;;;2.60;;
39140;SDS011;24875;48.436;10.298;2023-02-28T04:45:44;5.53;;;2.93;;
39140;SDS011;24875;48.436;10.298;2023-02-28T04:48:11;5.50;;;2.43;;
39140;SDS011;24875;48.436;10.298;2023-02-28T04:50:37;4.57;;;2.73;;
39140;SDS011;24875;48.436;10.298;2023-02-28T04:53:04;5.20;;;2.73;;
39140;SDS011;24875;48.436;10.298;2023-02-28T04:55:30;3.67;;;2.00;;
39140;SDS011;24875;48.436;10.298;2023-02-28T04:57:58;6.53;;;3.37;;
39140;SDS011;24875;48.436;10.298;2023-02-28T05:00:24;9.40;;;3.40;;
39140;SDS011;24875;48.436;10.298;2023-02-28T05:02:51;6.60;;;3.47;;
39140;SDS011;24875;48.436;10.298;2023-02-28T05:05:17;6.23;;;2.97;;
39140;SDS011;24875;48.436;10.298;2023-02-28T05:07:44;5.63;;;2.77;;
39140;SDS011;24875;48.436;10.298;2023-02-28T05:10:11;7.03;;;2.43;;
39140;SDS011;24875;48.436;10.298;2023-02-28T05:12:37;5.93;;;3.27;;
39140;SDS011;24875;48.436;10.298;2023-02-28T05:15:07;3.73;;;3.07;;
39140;SDS011;24875;48.436;10.298;2023-02-28T05:17:38;2.73;;;2.10;;
39140;SDS011;24875;48.436;10.298;2023-02-28T05:20:05;5.90;;;3.13;;
39140;SDS011;24875;48.436;10.298;2023-02-28T05:22:33;8.40;;;3.30;;
39140;SDS011;24875;48.436;10.298;2023-02-28T05:25:00;5.23;;;2.77;;
39140;SDS011;24875;48.436;10.298;2023-02-28T05:27:26;8.20;;;2.40;;
39140;SDS011;24875;48.436;10.298;2023-02-28T05:29:53;3.40;;;2.43;;
39140;SDS011;24875;48.436;10.298;2023-02-28T05:32:21;5.43;;;2.87;;
39140;SDS011;24875;48.436;10.298;2023-02-28T05:34:48;8.70;;;3.60;;
39140;SDS011;24875;48.436;10.298;2023-02-28T05:37:14;7.93;;;3.70;;
39140;SDS011;24875;48.436;10.298;2023-02-28T05:39:41;4.40;;;2.47;;
39140;SDS011;24875;48.436;10.298;2023-02-28T05:42:08;8.13;;;3.50;;
39140;SDS011;24875;48.436;10.298;2023-02-28T05:44:35;9.23;;;3.90;;
39140;SDS011;24875;48.436;10.298;2023-02-28T05:47:01;6.17;;;3.87;;
39140;SDS011;24875;48.436;10.298;2023-02-28T05:49:29;14.10;;;3.37;;
39140;SDS011;24875;48.436;10.298;2023-02-28T05:51:56;9.33;;;3.67;;
39140;SDS011;24875;48.436;10.298;2023-02-28T05:54:22;7.83;;;3.20;;
39140;SDS011;24875;48.436;10.298;2023-02-28T05:56:49;7.03;;;3.83;;
39140;SDS011;24875;48.436;10.298;2023-02-28T05:59:15;6.90;;;4.03;;
39140;SDS011;24875;48.436;10.298;2023-02-28T06:01:42;6.07;;;3.30;;
39140;SDS011;24875;48.436;10.298;2023-02-28T06:04:13;5.33;;;3.07;;
39140;SDS011;24875;48.436;10.298;2023-02-28T06:06:44;6.00;;;3.37;;
39140;SDS011;24875;48.436;10.298;2023-02-28T06:09:10;6.77;;;3.87;;
39140;SDS011;24875;48.436;10.298;2023-02-28T06:11:37;4.87;;;3.10;;
39140;SDS011;24875;48.436;10.298;2023-02-28T06:14:04;5.30;;;2.47;;
39140;SDS011;24875;48.436;10.298;2023-02-28T06:16:32;9.77;;;3.43;;
39140;SDS011;24875;48.436;10.298;2023-02-28T06:19:00;7.83;;;4.60;;
39140;SDS011;24875;48.436;10.298;2023-02-28T06:21:28;12.30;;;5.90;;
39140;SDS011;24875;48.436;10.298;2023-02-28T06:23:56;20.67;;;5.80;;
39140;SDS011;24875;48.436;10.298;2023-02-28T06:26:23;6.57;;;3.87;;
39140;SDS011;24875;48.436;10.298;2023-02-28T06:28:51;8.93;;;3.77;;
39140;SDS011;24875;48.436;10.298;2023-02-28T06:31:17;8.00;;;3.53;;
39140;SDS011;24875;48.436;10.298;2023-02-28T06:33:45;7.50;;;3.43;;
39140;SDS011;24875;48.436;10.298;2023-02-28T06:36:12;11.27;;;4.40;;
39140;SDS011;24875;48.436;10.298;2023-02-28T06:38:40;8.17;;;4.87;;
39140;SDS011;24875;48.436;10.298;2023-02-28T06:41:08;6.80;;;3.87;;
39140;SDS011;24875;48.436;10.298;2023-02-28T06:43:36;7.97;;;3.50;;
39140;SDS011;24875;48.436;10.298;2023-02-28T06:46:05;4.03;;;2.70;;
39140;SDS011;24875;48.436;10.298;2023-02-28T06:48:33;7.27;;;3.43;;
39140;SDS011;24875;48.436;10.298;2023-02-28T06:51:03;5.83;;;3.47;;
39140;SDS011;24875;48.436;10.298;2023-02-28T06:53:31;11.10;;;3.73;;
39140;SDS011;24875;48.436;10.298;2023-02-28T06:55:57;6.80;;;3.57;;
39140;SDS011;24875;48.436;10.298;2023-02-28T06:58:25;9.17;;;2.83;;
39140;SDS011;24875;48.436;10.298;2023-02-28T07:00:52;9.10;;;4.23;;
39140;SDS011;24875;48.436;10.298;2023-02-28T07:03:19;7.63;;;3.47;;
39140;SDS011;24875;48.436;10.298;2023-02-28T07:05:45;5.77;;;2.90;;
39140;SDS011;24875;48.436;10.298;2023-02-28T07:08:12;10.10;;;3.17;;
39140;SDS011;24875;48.436;10.298;2023-02-28T07:10:38;10.17;;;4.17;;
39140;SDS011;24875;48.436;10.298;2023-02-28T07:13:07;8.63;;;4.43;;
39140;SDS011;24875;48.436;10.298;2023-02-28T07:15:36;8.03;;;3.90;;
39140;SDS011;24875;48.436;10.298;2023-02-28T07:18:03;6.70;;;2.90;;
39140;SDS011;24875;48.436;10.298;2023-02-28T07:20:30;9.17;;;3.87;;
39140;SDS011;24875;48.436;10.298;2023-02-28T07:22:56;9.43;;;4.13;;
39140;SDS011;24875;48.436;10.298;2023-02-28T07:25:23;7.63;;;3.43;;
39140;SDS011;24875;48.436;10.298;2023-02-28T07:27:50;5.07;;;3.63;;
39140;SDS011;24875;48.436;10.298;2023-02-28T07:30:16;11.73;;;4.23;;
39140;SDS011;24875;48.436;10.298;2023-02-28T07:32:45;7.70;;;3.40;;
39140;SDS011;24875;48.436;10.298;2023-02-28T07:35:11;7.57;;;4.03;;
39140;SDS011;24875;48.436;10.298;2023-02-28T07:37:40;11.40;;;4.97;;
39140;SDS011;24875;48.436;10.298;2023-02-28T07:40:08;8.30;;;4.40;;
39140;SDS011;24875;48.436;10.298;2023-02-28T07:42:37;7.07;;;3.47;;
39140;SDS011;24875;48.436;10.298;2023-02-28T07:45:05;16.93;;;4.87;;
39140;SDS011;24875;48.436;10.298;2023-02-28T07:47:32;7.73;;;4.03;;
39140;SDS011;24875;48.436;10.298;2023-02-28T07:50:00;5.80;;;2.67;;
39140;SDS011;24875;48.436;10.298;2023-02-28T07:52:27;4.27;;;2.63;;
39140;SDS011;24875;48.436;10.298;2023-02-28T07:54:53;9.37;;;4.10;;
39140;SDS011;24875;48.436;10.298;2023-02-28T07:57:20;11.23;;;4.77;;
39140;SDS011;24875;48.436;10.298;2023-02-28T07:59:46;7.83;;;4.03;;
39140;SDS011;24875;48.436;10.298;2023-02-28T08:02:13;9.90;;;4.23;;
39140;SDS011;24875;48.436;10.298;2023-02-28T08:04:40;5.50;;;3.23;;
39140;SDS011;24875;48.436;10.298;2023-02-28T08:07:08;6.33;;;3.07;;
39140;SDS011;24875;48.436;10.298;2023-02-28T08:09:38;7.40;;;4.57;;
39140;SDS011;24875;48.436;10.298;2023-02-28T08:12:05;11.83;;;4.70;;
39140;SDS011;24875;48.436;10.298;2023-02-28T08:14:31;5.17;;;3.30;;
39140;SDS011;24875;48.436;10.298;2023-02-28T08:16:58;8.23;;;3.77;;
39140;SDS011;24875;48.436;10.298;2023-02-28T08:19:25;6.97;;;2.93;;
39140;SDS011;24875;48.436;10.298;2023-02-28T08:21:51;8.77;;;4.83;;
39140;SDS011;24875;48.436;10.298;2023-02-28T08:24:19;9.67;;;4.83;;
39140;SDS011;24875;48.436;10.298;2023-02-28T08:26:45;8.00;;;4.43;;
39140;SDS011;24875;48.436;10.298;2023-02-28T08:29:12;7.07;;;2.60;;
39140;SDS011;24875;48.436;10.298;2023-02-28T08:31:39;7.30;;;3.27;;
39140;SDS011;24875;48.436;10.298;2023-02-28T08:34:05;6.43;;;3.23;;
39140;SDS011;24875;48.436;10.298;2023-02-28T08:36:32;12.13;;;4.57;;
39140;SDS011;24875;48.436;10.298;2023-02-28T08:38:59;11.87;;;5.03;;
39140;SDS011;24875;48.436;10.298;2023-02-28T08:41:27;9.50;;;4.53;;
39140;SDS011;24875;48.436;10.298;2023-02-28T08:43:53;10.37;;;5.50;;
39140;SDS011;24875;48.436;10.298;2023-02-28T08:46:20;12.10;;;4.33;;
39140;SDS011;24875;48.436;10.298;2023-02-28T08:48:46;6.73;;;3.80;;
39140;SDS011;24875;48.436;10.298;2023-02-28T08:51:13;7.80;;;3.77;;
39140;SDS011;24875;48.436;10.298;2023-02-28T08:53:43;11.63;;;3.63;;
39140;SDS011;24875;48.436;10.298;2023-02-28T08:56:11;10.73;;;4.13;;
39140;SDS011;24875;48.436;10.298;2023-02-28T08:58:40;13.20;;;4.67;;
39140;SDS011;24875;48.436;10.298;2023-02-28T09:01:08;12.43;;;5.20;;
39140;SDS011;24875;48.436;10.298;2023-02-28T09:03:35;13.37;;;4.17;;
39140;SDS011;24875;48.436;10.298;2023-02-28T09:06:02;10.90;;;4.17;;
39140;SDS011;24875;48.436;10.298;2023-02-28T09:08:29;13.80;;;6.13;;
39140;SDS011;24875;48.436;10.298;2023-02-28T09:10:57;9.00;;;4.93;;
39140;SDS011;24875;48.436;10.298;2023-02-28T09:13:24;18.23;;;6.80;;
39140;SDS011;24875;48.436;10.298;2023-02-28T09:15:52;21.23;;;6.87;;
39140;SDS011;24875;48.436;10.298;2023-02-28T09:18:19;10.23;;;4.73;;
39140;SDS011;24875;48.436;10.298;2023-02-28T09:20:46;13.33;;;4.77;;
39140;SDS011;24875;48.436;10.298;2023-02-28T09:23:12;11.67;;;5.27;;
39140;SDS011;24875;48.436;10.298;2023-02-28T09:25:44;9.97;;;4.50;;
39140;SDS011;24875;48.436;10.298;2023-02-28T09:28:11;25.33;;;4.63;;
39140;SDS011;24875;48.436;10.298;2023-02-28T09:30:39;15.20;;;5.57;;
39140;SDS011;24875;48.436;10.298;2023-02-28T09:33:07;12.17;;;5.00;;
39140;SDS011;24875;48.436;10.298;2023-02-28T09:35:34;14.57;;;5.90;;
39140;SDS011;24875;48.436;10.298;2023-02-28T09:38:02;9.80;;;5.00;;
39140;SDS011;24875;48.436;10.298;2023-02-28T09:40:28;9.43;;;5.23;;
39140;SDS011;24875;48.436;10.298;2023-02-28T09:42:55;10.33;;;4.20;;
39140;SDS011;24875;48.436;10.298;2023-02-28T09:45:26;11.00;;;4.97;;
39140;SDS011;24875;48.436;10.298;2023-02-28T09:47:58;10.37;;;4.90;;
39140;SDS011;24875;48.436;10.298;2023-02-28T09:50:32;14.90;;;4.53;;
39140;SDS011;24875;48.436;10.298;2023-02-28T09:53:03;12.43;;;5.73;;
39140;SDS011;24875;48.436;10.298;2023-02-28T09:55:44;11.33;;;5.53;;
39140;SDS011;24875;48.436;10.298;2023-02-28T09:58:16;10.37;;;4.33;;
39140;SDS011;24875;48.436;10.298;2023-02-28T10:00:46;11.13;;;5.63;;
39140;SDS011;24875;48.436;10.298;2023-02-28T10:03:25;13.67;;;6.13;;
39140;SDS011;24875;48.436;10.298;2023-02-28T10:05:58;9.03;;;4.57;;
39140;SDS011;24875;48.436;10.298;2023-02-28T10:08:33;14.17;;;5.77;;
39140;SDS011;24875;48.436;10.298;2023-02-28T10:11:07;9.23;;;4.20;;
39140;SDS011;24875;48.436;10.298;2023-02-28T10:13:36;10.93;;;5.77;;
39140;SDS011;24875;48.436;10.298;2023-02-28T10:16:13;11.23;;;4.90;;
39140;SDS011;24875;48.436;10.298;2023-02-28T10:18:43;16.77;;;6.07;;
39140;SDS011;24875;48.436;10.298;2023-02-28T10:21:17;12.83;;;5.33;;
39140;SDS011;24875;48.436;10.298;2023-02-28T10:23:46;9.97;;;4.20;;
39140;SDS011;24875;48.436;10.298;2023-02-28T10:26:15;13.47;;;5.90;;
39140;SDS011;24875;48.436;10.298;2023-02-28T10:28:43;15.27;;;5.37;;
39140;SDS011;24875;48.436;10.298;2023-02-28T10:31:11;13.83;;;6.00;;
39140;SDS011;24875;48.436;10.298;2023-02-28T10:33:42;13.37;;;5.97;;
39140;SDS011;24875;48.436;10.298;2023-02-28T10:36:10;13.00;;;5.10;;
39140;SDS011;24875;48.436;10.298;2023-02-28T10:38:43;12.60;;;5.43;;
39140;SDS011;24875;48.436;10.298;2023-02-28T10:41:12;12.23;;;5.60;;
39140;SDS011;24875;48.436;10.298;2023-02-28T10:43:40;20.40;;;8.53;;
39140;SDS011;24875;48.436;10.298;2023-02-28T10:46:11;16.60;;;6.87;;
39140;SDS011;24875;48.436;10.298;2023-02-28T10:48:57;63.70;;;20.70;;
39140;SDS011;24875;48.436;10.298;2023-02-28T10:51:27;69.90;;;18.83;;
39140;SDS011;24875;48.436;10.298;2023-02-28T10:54:03;18.87;;;6.37;;
39140;SDS011;24875;48.436;10.298;2023-02-28T10:56:31;19.17;;;7.93;;
39140;SDS011;24875;48.436;10.298;2023-02-28T10:58:59;42.13;;;14.20;;
39140;SDS011;24875;48.436;10.298;2023-02-28T11:01:34;28.17;;;9.90;;
39140;SDS011;24875;48.436;10.298;2023-02-28T11:04:04;15.07;;;7.17;;
39140;SDS011;24875;48.436;10.298;2023-02-28T11:06:43;14.60;;;6.20;;
39140;SDS011;24875;48.436;10.298;2023-02-28T11:09:16;13.07;;;6.00;;
39140;SDS011;24875;48.436;10.298;2023-02-28T11:11:48;12.53;;;5.50;;
39140;SDS011;24875;48.436;10.298;2023-02-28T11:14:17;12.07;;;5.73;;
39140;SDS011;24875;48.436;10.298;2023-02-28T11:16:46;12.40;;;5.20;;
39140;SDS011;24875;48.436;10.298;2023-02-28T11:19:17;12.10;;;5.80;;
39140;SDS011;24875;48.436;10.298;2023-02-28T11:21:48;16.10;;;5.50;;
39140;SDS011;24875;48.436;10.298;2023-02-28T11:24:23;11.97;;;5.37;;
39140;SDS011;24875;48.436;10.298;2023-02-28T11:26:53;14.20;;;6.20;;
39140;SDS011;24875;48.436;10.298;2023-02-28T11:29:22;9.43;;;4.97;;
39140;SDS011;24875;48.436;10.298;2023-02-28T11:34:42;15.13;;;5.40;;
39140;SDS011;24875;48.436;10.298;2023-02-28T11:37:11;11.97;;;5.97;;
39140;SDS011;24875;48.436;10.298;2023-02-28T11:39:40;11.83;;;4.40;;
39140;SDS011;24875;48.436;10.298;2023-02-28T11:42:11;11.13;;;5.60;;
39140;SDS011;24875;48.436;10.298;2023-02-28T11:44:59;14.13;;;5.73;;
39140;SDS011;24875;48.436;10.298;2023-02-28T11:47:37;11.77;;;5.40;;
39140;SDS011;24875;48.436;10.298;2023-02-28T11:50:20;13.83;;;6.50;;
39140;SDS011;24875;48.436;10.298;2023-02-28T11:52:58;11.10;;;4.60;;
39140;SDS011;24875;48.436;10.298;2023-02-28T11:55:30;12.80;;;5.73;;
39140;SDS011;24875;48.436;10.298;2023-02-28T11:58:20;12.57;;;5.43;;
39140;SDS011;24875;48.436;10.298;2023-02-28T12:01:05;12.47;;;5.70;;
39140;SDS011;24875;48.436;10.298;2023-02-28T12:03:42;15.33;;;6.00;;
39140;SDS011;24875;48.436;10.298;2023-02-28T12:06:16;11.10;;;4.97;;
39140;SDS011;24875;48.436;10.298;2023-02-28T12:08:51;10.70;;;5.07;;
39140;SDS011;24875;48.436;10.298;2023-02-28T12:11:36;16.20;;;5.37;;
39140;SDS011;24875;48.436;10.298;2023-02-28T12:14:19;12.43;;;5.57;;
39140;SDS011;24875;48.436;10.298;2023-02-28T12:17:16;11.17;;;4.80;;
39140;SDS011;24875;48.436;10.298;2023-02-28T12:19:51;15.10;;;5.97;;
39140;SDS011;24875;48.436;10.298;2023-02-28T12:22:30;9.70;;;4.70;;
39140;SDS011;24875;48.436;10.298;2023-02-28T12:25:02;13.83;;;5.77;;
39140;SDS011;24875;48.436;10.298;2023-02-28T12:27:51;14.07;;;6.20;;
39140;SDS011;24875;48.436;10.298;2023-02-28T12:30:19;12.00;;;4.87;;
39140;SDS011;24875;48.436;10.298;2023-02-28T12:32:49;11.83;;;5.47;;
39140;SDS011;24875;48.436;10.298;2023-02-28T12:35:21;12.77;;;5.80;;
39140;SDS011;24875;48.436;10.298;2023-02-28T12:37:54;15.70;;;4.67;;
39140;SDS011;24875;48.436;10.298;2023-02-28T12:40:25;13.83;;;6.33;;
39140;SDS011;24875;48.436;10.298;2023-02-28T12:43:01;8.03;;;4.33;;
39140;SDS011;24875;48.436;10.298;2023-02-28T12:45:31;14.33;;;5.83;;
39140;SDS011;24875;48.436;10.298;2023-02-28T12:48:07;12.20;;;5.87;;
39140;SDS011;24875;48.436;10.298;2023-02-28T12:50:38;15.07;;;5.03;;
39140;SDS011;24875;48.436;10.298;2023-02-28T12:53:06;11.83;;;4.90;;
39140;SDS011;24875;48.436;10.298;2023-02-28T12:55:41;10.37;;;5.43;;
39140;SDS011;24875;48.436;10.298;2023-02-28T12:58:17;6.60;;;4.23;;
39140;SDS011;24875;48.436;10.298;2023-02-28T13:00:58;11.43;;;5.00;;
39140;SDS011;24875;48.436;10.298;2023-02-28T13:06:40;11.27;;;5.13;;
39140;SDS011;24875;48.436;10.298;2023-02-28T13:09:20;10.03;;;5.23;;
39140;SDS011;24875;48.436;10.298;2023-02-28T13:11:47;9.70;;;4.27;;
39140;SDS011;24875;48.436;10.298;2023-02-28T13:14:19;11.77;;;5.93;;
39140;SDS011;24875;48.436;10.298;2023-02-28T13:16:51;13.70;;;5.43;;
39140;SDS011;24875;48.436;10.298;2023-02-28T13:19:22;8.47;;;4.53;;
39140;SDS011;24875;48.436;10.298;2023-02-28T13:21:50;11.30;;;3.97;;
39140;SDS011;24875;48.436;10.298;2023-02-28T13:24:36;7.27;;;3.57;;
39140;SDS011;24875;48.436;10.298;2023-02-28T13:27:21;11.67;;;5.07;;
39140;SDS011;24875;48.436;10.298;2023-02-28T13:29:52;9.03;;;4.63;;
39140;SDS011;24875;48.436;10.298;2023-02-28T13:38:32;10.20;;;4.10;;
39140;SDS011;24875;48.436;10.298;2023-02-28T13:44:08;9.87;;;4.30;;
39140;SDS011;24875;48.436;10.298;2023-02-28T13:47:15;11.90;;;5.07;;
39140;SDS011;24875;48.436;10.298;2023-02-28T13:49:44;11.73;;;4.37;;
39140;SDS011;24875;48.436;10.298;2023-02-28T13:52:12;10.70;;;5.13;;
39140;SDS011;24875;48.436;10.298;2023-02-28T13:54:48;19.83;;;5.87;;
39140;SDS011;24875;48.436;10.298;2023-02-28T13:57:25;10.17;;;4.83;;
39140;SDS011;24875;48.436;10.298;2023-02-28T14:00:02;11.77;;;5.23;;
39140;SDS011;24875;48.436;10.298;2023-02-28T14:02:50;10.67;;;5.73;;
39140;SDS011;24875;48.436;10.298;2023-02-28T14:05:33;15.07;;;5.63;;
39140;SDS011;24875;48.436;10.298;2023-02-28T14:08:04;13.17;;;6.50;;
39140;SDS011;24875;48.436;10.298;2023-02-28T14:10:34;13.63;;;5.67;;
39140;SDS011;24875;48.436;10.298;2023-02-28T14:13:17;11.00;;;5.00;;
39140;SDS011;24875;48.436;10.298;2023-02-28T14:16:09;13.47;;;5.57;;
39140;SDS011;24875;48.436;10.298;2023-02-28T14:18:37;13.77;;;5.97;;
39140;SDS011;24875;48.436;10.298;2023-02-28T14:21:11;9.13;;;4.47;;
39140;SDS011;24875;48.436;10.298;2023-02-28T14:26:48;9.47;;;4.87;;
39140;SDS011;24875;48.436;10.298;2023-02-28T14:29:38;10.43;;;4.60;;
39140;SDS011;24875;48.436;10.298;2023-02-28T14:32:21;12.43;;;5.50;;
39140;SDS011;24875;48.436;10.298;2023-02-28T14:34:54;10.33;;;5.47;;
39140;SDS011;24875;48.436;10.298;2023-02-28T14:37:29;9.77;;;4.93;;
39140;SDS011;24875;48.436;10.298;2023-02-28T14:39:59;12.10;;;5.40;;
39140;SDS011;24875;48.436;10.298;2023-02-28T14:42:30;9.77;;;4.67;;
39140;SDS011;24875;48.436;10.298;2023-02-28T14:44:59;13.80;;;5.67;;
39140;SDS011;24875;48.436;10.298;2023-02-28T14:47:27;11.30;;;5.33;;
39140;SDS011;24875;48.436;10.298;2023-02-28T14:49:56;9.80;;;3.87;;
39140;SDS011;24875;48.436;10.298;2023-02-28T14:52:23;13.37;;;5.27;;
39140;SDS011;24875;48.436;10.298;2023-02-28T14:54:54;9.80;;;4.53;;
39140;SDS011;24875;48.436;10.298;2023-02-28T14:57:23;12.00;;;4.00;;
39140;SDS011;24875;48.436;10.298;2023-02-28T15:00:01;13.40;;;5.80;;
39140;SDS011;24875;48.436;10.298;2023-02-28T15:02:35;13.43;;;5.60;;
39140;SDS011;24875;48.436;10.298;2023-02-28T15:05:10;11.77;;;5.30;;
39140;SDS011;24875;48.436;10.298;2023-02-28T15:08:06;11.47;;;5.10;;
39140;SDS011;24875;48.436;10.298;2023-02-28T15:10:37;12.30;;;5.27;;
39140;SDS011;24875;48.436;10.298;2023-02-28T15:13:05;10.60;;;5.17;;